EmailTwitter


Surface observations / United Kingdom / EGLC

Regions: Quebec | Canada | USA | Europe | France | UK | Elsewhere
Station
Display
Info & Location for EGLC | Help decoding METAR

Weather Conditions observed on 2019/10/23 at 22:50 UTC at LONDON CITY AIRP, UK (EGLC)

Sky conditions: overcast.

Obstruction(s) to Vision: haze.

Temperature: 13.0 Celsius.

Dewpoint: 12.0 Celsius.

Relative Humidity: 94%

Winds: Northwest at 4 km/h or 2 knots.

Mean Sea level Pressure: 100.60 kilopascals.

Horizontal visibility: 2.17 statute miles or 3.48 kilometers.

Height of the Ceiling: 396 metres ( 1300 feet ).

Coded METAR:

EGLC 232250Z AUTO 33002KT 3500 HZ FEW004 OVC013 13/12 Q1006=